Time;durP1;ratioP1;P1;durP2;ratioP2;P2;SDS_P1;SDS_P2;PMS_P1;PMS_P2;Temp;Humidity;BMP_temperature;BMP_pressure;BME280_temperature;BME280_humidity;BME280_pressure;Samples;Min_cycle;Max_cycle;Signal;HPM_P1;HPM_P2
2022/06/18 00:00:12;;;;;;;8.55;2.50;;;;;;;23.01;50.56;101660.00;5009805;28;20104;-78
2022/06/18 00:02:42;;;;;;;7.10;2.53;;;;;;;22.99;50.60;101661.91;4997521;28;20367;-78
2022/06/18 00:05:10;;;;;;;7.07;2.40;;;;;;;22.90;51.05;101659.78;4999741;28;20379;-78
2022/06/18 00:07:39;;;;;;;10.00;2.65;;;;;;;22.82;50.46;101657.50;5004095;28;20041;-78
2022/06/18 00:10:07;;;;;;;3.90;2.47;;;;;;;22.78;50.65;101655.09;5000829;28;20038;-78
2022/06/18 00:15:26;;;;;;;6.57;2.65;;;;;;;22.65;51.53;101655.84;5006699;28;20046;-78
2022/06/18 00:17:52;;;;;;;7.00;2.80;;;;;;;22.61;52.00;101651.56;5009123;28;20092;-78
2022/06/18 00:20:20;;;;;;;7.18;2.70;;;;;;;22.53;52.37;101643.94;5009586;28;20117;-78
2022/06/18 00:22:51;;;;;;;5.32;2.35;;;;;;;22.47;52.99;101652.38;4992941;28;20068;-78
2022/06/18 00:25:20;;;;;;;7.38;2.60;;;;;;;22.44;52.93;101654.41;5011088;28;20117;-78
2022/06/18 00:27:46;;;;;;;8.38;2.55;;;;;;;22.38;52.65;101654.75;5006214;28;20046;-78
2022/06/18 00:30:15;;;;;;;8.43;3.30;;;;;;;22.29;53.35;101656.19;4999534;28;20110;-78
2022/06/18 00:32:40;;;;;;;7.82;2.72;;;;;;;22.27;52.44;101658.94;5010255;28;20117;-78
2022/06/18 00:35:06;;;;;;;6.78;2.58;;;;;;;22.22;53.99;101647.56;5003975;28;20114;-78
2022/06/18 00:37:32;;;;;;;7.13;2.88;;;;;;;22.18;53.34;101653.19;5009686;28;20046;-78
2022/06/18 00:39:57;;;;;;;4.03;2.55;;;;;;;22.08;53.66;101648.34;4989754;28;20510;-78
2022/06/18 00:42:27;;;;;;;7.90;2.60;;;;;;;22.03;53.82;101647.75;5001887;28;20037;-78
2022/06/18 00:44:55;;;;;;;9.73;2.60;;;;;;;21.94;54.08;101647.38;5006623;28;20045;-78
2022/06/18 00:47:50;;;;;;;6.38;2.42;;;;;;;21.91;54.58;101653.81;5000280;28;20022;-78
2022/06/18 00:50:26;;;;;;;4.32;2.35;;;;;;;21.83;54.54;101647.97;5009185;28;20444;-78
2022/06/18 00:53:02;;;;;;;8.32;3.08;;;;;;;21.79;55.57;101647.28;5003938;28;20036;-78
2022/06/18 00:55:35;;;;;;;6.97;2.80;;;;;;;21.78;54.96;101650.94;5010598;28;20065;-78
2022/06/18 00:58:07;;;;;;;4.72;2.55;;;;;;;21.69;55.51;101644.25;5025183;28;20378;-78
2022/06/18 01:00:42;;;;;;;4.38;2.45;;;;;;;21.67;55.44;101650.69;5042323;28;20049;-78
2022/06/18 01:03:21;;;;;;;8.30;2.83;;;;;;;21.62;54.85;101648.22;5009222;28;20470;-78
2022/06/18 01:05:48;;;;;;;6.55;2.70;;;;;;;21.58;55.95;101645.78;5009317;28;20033;-78
2022/06/18 01:08:17;;;;;;;4.80;2.75;;;;;;;21.50;55.53;101648.03;4995550;28;20445;-78
2022/06/18 01:10:48;;;;;;;7.40;2.92;;;;;;;21.50;56.26;101646.22;5010474;28;20029;-78
2022/06/18 01:13:17;;;;;;;10.20;3.13;;;;;;;21.43;56.99;101639.41;5023808;28;20033;-78
2022/06/18 01:15:44;;;;;;;5.43;3.03;;;;;;;21.39;56.03;101644.13;4999374;28;20026;-78
2022/06/18 01:18:12;;;;;;;6.53;2.90;;;;;;;21.29;57.45;101641.94;4993016;28;20034;-78
2022/06/18 01:20:45;;;;;;;8.30;2.95;;;;;;;21.24;55.59;101629.63;5009193;28;20026;-78
2022/06/18 01:23:21;;;;;;;5.47;2.85;;;;;;;21.18;58.08;101634.47;5009162;28;20409;-78
2022/06/18 01:25:48;;;;;;;14.13;3.22;;;;;;;21.15;58.37;101624.72;5009125;28;20026;-78
2022/06/18 01:28:16;;;;;;;12.85;3.03;;;;;;;21.15;57.97;101616.63;5010410;28;20038;-78
2022/06/18 01:30:44;;;;;;;7.70;3.20;;;;;;;21.19;57.71;101631.69;5040231;28;20045;-78
2022/06/18 01:33:14;;;;;;;9.23;3.17;;;;;;;21.15;57.90;101622.03;5003543;28;20133;-78
2022/06/18 01:35:45;;;;;;;8.90;3.17;;;;;;;21.14;57.65;101633.78;4996816;28;20405;-78
2022/06/18 01:38:14;;;;;;;8.48;3.35;;;;;;;21.10;58.52;101634.00;5012703;28;20030;-78
2022/06/18 01:40:50;;;;;;;11.55;3.47;;;;;;;21.07;58.45;101634.16;5012644;28;20559;-78
2022/06/18 01:43:18;;;;;;;10.75;3.05;;;;;;;21.05;57.94;101637.81;5003571;28;20522;-78
2022/06/18 01:45:51;;;;;;;7.18;3.25;;;;;;;21.04;58.21;101630.69;5010835;28;20084;-78
2022/06/18 01:48:21;;;;;;;9.48;3.65;;;;;;;21.08;57.86;101630.53;5009013;28;20048;-78
2022/06/18 01:50:55;;;;;;;8.93;3.40;;;;;;;20.98;58.83;101622.94;5010399;28;20393;-78
2022/06/18 01:53:34;;;;;;;10.00;4.43;;;;;;;20.99;58.51;101618.41;5012146;28;20485;-78
2022/06/18 01:56:09;;;;;;;8.02;3.47;;;;;;;20.97;58.13;101621.19;5012214;28;20481;-78
2022/06/18 01:58:42;;;;;;;7.45;3.20;;;;;;;20.93;58.72;101621.44;5012218;28;20052;-78
2022/06/18 02:01:21;;;;;;;8.88;4.50;;;;;;;20.91;58.73;101621.50;5014351;28;20393;-78
2022/06/18 02:03:46;;;;;;;7.45;3.67;;;;;;;20.85;59.26;101621.84;5012245;28;20041;-78
2022/06/18 02:06:13;;;;;;;9.55;4.20;;;;;;;20.82;58.90;101620.19;5011855;28;20389;-78
2022/06/18 02:08:38;;;;;;;6.10;3.78;;;;;;;20.77;59.33;101616.88;5012013;28;20497;-78
2022/06/18 02:11:07;;;;;;;7.07;3.95;;;;;;;20.77;60.33;101627.63;4995330;28;20048;-78
2022/06/18 02:13:40;;;;;;;8.07;4.28;;;;;;;20.75;57.52;101617.91;5013199;28;20033;-78
2022/06/18 02:16:13;;;;;;;7.82;4.00;;;;;;;20.69;60.37;101615.50;5012198;28;20425;-78
2022/06/18 02:18:41;;;;;;;10.73;4.00;;;;;;;20.69;60.57;101618.19;5013243;28;20065;-78
2022/06/18 02:21:11;;;;;;;9.63;4.18;;;;;;;20.65;60.30;101612.13;5011758;28;20033;-78
2022/06/18 02:23:37;;;;;;;10.55;4.05;;;;;;;20.64;60.92;101609.50;5011656;28;20037;-78
2022/06/18 02:26:06;;;;;;;7.80;4.30;;;;;;;20.63;60.60;101613.16;4995213;28;20385;-78
2022/06/18 02:28:43;;;;;;;11.23;4.53;;;;;;;20.65;60.14;101614.81;4997856;28;20109;-78
2022/06/18 02:31:16;;;;;;;12.07;4.15;;;;;;;20.68;61.14;101614.66;5011337;28;20057;-78
2022/06/18 02:33:48;;;;;;;12.02;4.30;;;;;;;20.66;61.06;101607.59;5010238;28;20053;-78
2022/06/18 02:36:23;;;;;;;11.73;4.40;;;;;;;20.65;61.10;101608.53;4999919;28;20077;-78
2022/06/18 02:38:56;;;;;;;11.35;4.30;;;;;;;20.64;60.99;101604.97;5007473;28;20034;-78
2022/06/18 02:41:22;;;;;;;9.23;4.78;;;;;;;20.61;61.65;101610.53;5010746;28;20042;-78
2022/06/18 02:43:48;;;;;;;8.18;4.35;;;;;;;20.58;60.03;101610.69;4994816;28;20443;-78
2022/06/18 02:46:15;;;;;;;14.07;4.70;;;;;;;20.57;61.70;101600.88;5011131;28;20124;-77
2022/06/18 02:48:42;;;;;;;11.05;4.78;;;;;;;20.57;61.43;101609.84;4993261;28;20042;-78
2022/06/18 02:51:11;;;;;;;14.35;4.85;;;;;;;20.54;61.09;101612.63;5004577;28;20253;-78
2022/06/18 02:53:37;;;;;;;13.68;5.20;;;;;;;20.53;61.02;101605.50;5012317;28;20037;-78
2022/06/18 02:56:05;;;;;;;11.25;4.88;;;;;;;20.56;61.23;101608.06;4994861;28;20091;-78
2022/06/18 02:58:42;;;;;;;8.32;4.70;;;;;;;20.56;61.60;101615.28;5010981;28;20120;-78
2022/06/18 03:01:18;;;;;;;12.32;4.93;;;;;;;20.58;61.31;101616.06;4997506;28;20119;-78
2022/06/18 03:03:50;;;;;;;9.32;4.70;;;;;;;20.58;60.96;101610.69;5001085;28;20482;-78
2022/06/18 03:06:18;;;;;;;14.95;5.90;;;;;;;20.58;61.18;101611.56;5008893;28;20041;-78
2022/06/18 03:08:46;;;;;;;9.38;4.93;;;;;;;20.58;61.27;101611.56;5012301;28;20037;-78
2022/06/18 03:13:57;;;;;;;15.63;5.03;;;;;;;20.54;60.50;101615.31;5000726;28;20038;-78
2022/06/18 03:16:24;;;;;;;8.98;5.25;;;;;;;20.54;60.71;101614.44;5022587;28;20049;-78
2022/06/18 03:18:52;;;;;;;16.17;5.03;;;;;;;20.55;60.18;101611.72;5011971;28;20042;-78
2022/06/18 03:21:31;;;;;;;10.20;5.25;;;;;;;20.57;60.42;101617.00;4996657;28;20494;-78
2022/06/18 03:23:57;;;;;;;9.98;5.00;;;;;;;20.56;60.73;101610.75;5018536;28;20026;-78
2022/06/18 03:26:23;;;;;;;11.50;5.20;;;;;;;20.55;60.42;101611.72;5038074;28;20504;-78
2022/06/18 03:28:52;;;;;;;16.52;5.03;;;;;;;20.58;60.10;101613.38;4978693;28;20037;-78
2022/06/18 03:31:18;;;;;;;12.32;5.20;;;;;;;20.57;59.92;101617.91;5010416;28;20037;-78
2022/06/18 03:33:46;;;;;;;17.73;6.10;;;;;;;20.56;60.13;101621.53;5002249;28;20311;-78
2022/06/18 03:36:13;;;;;;;12.43;5.05;;;;;;;20.50;60.25;101620.94;4994039;28;20033;-78
2022/06/18 03:38:39;;;;;;;10.60;5.43;;;;;;;20.54;60.04;101627.91;5010225;28;20041;-78
2022/06/18 03:41:08;;;;;;;13.18;5.57;;;;;;;20.54;60.15;101630.59;5001023;28;20501;-78
2022/06/18 03:43:34;;;;;;;8.35;5.32;;;;;;;20.53;60.34;101631.56;5004206;28;20037;-78
2022/06/18 03:46:08;;;;;;;11.50;4.90;;;;;;;20.50;60.49;101629.91;5031420;28;20084;-78
2022/06/18 03:48:57;;;;;;;7.75;4.97;;;;;;;20.53;59.84;101626.19;5002959;28;20497;-78
2022/06/18 03:51:27;;;;;;;13.43;5.20;;;;;;;20.48;60.84;101621.03;5005841;28;20041;-78
2022/06/18 03:53:55;;;;;;;12.02;5.30;;;;;;;20.47;60.77;101627.34;5036355;28;20394;-78
2022/06/18 03:56:25;;;;;;;10.55;5.38;;;;;;;20.46;60.60;101627.44;5012390;28;20153;-78
2022/06/18 03:58:53;;;;;;;13.63;5.43;;;;;;;20.46;60.06;101616.66;5038684;28;20124;-78
2022/06/18 04:01:29;;;;;;;13.00;5.70;;;;;;;20.46;60.38;101617.53;5006005;28;20051;-78
2022/06/18 04:03:54;;;;;;;12.65;5.72;;;;;;;20.42;61.03;101621.31;5042933;28;20042;-78
2022/06/18 04:06:25;;;;;;;12.35;5.82;;;;;;;20.43;60.89;101616.84;4990967;28;20129;-78
2022/06/18 04:08:52;;;;;;;8.60;4.93;;;;;;;20.43;60.81;101617.69;4984334;28;20034;-78
2022/06/18 04:11:24;;;;;;;10.50;5.40;;;;;;;20.42;60.74;101618.63;4994307;28;20037;-78
2022/06/18 04:13:50;;;;;;;15.20;6.05;;;;;;;20.43;61.34;101614.16;5026544;28;20045;-78
2022/06/18 04:16:38;;;;;;;13.02;5.45;;;;;;;20.41;61.20;101609.69;5009878;28;20030;-78
2022/06/18 04:19:13;;;;;;;13.00;5.80;;;;;;;20.40;61.23;101610.66;4990220;28;20066;-78
2022/06/18 04:21:39;;;;;;;19.15;5.38;;;;;;;20.41;60.85;101617.75;5007388;28;20069;-78
2022/06/18 04:24:05;;;;;;;12.90;5.35;;;;;;;20.43;61.53;101608.75;5009835;28;20145;-78
2022/06/18 04:26:31;;;;;;;16.25;5.50;;;;;;;20.42;61.65;101602.50;4991769;28;20559;-78
2022/06/18 04:28:58;;;;;;;17.00;5.70;;;;;;;20.41;61.52;101606.13;5014297;28;20126;-78
2022/06/18 04:31:24;;;;;;;14.35;5.93;;;;;;;20.39;61.33;101600.81;5009667;28;20128;-77
2022/06/18 04:33:51;;;;;;;8.73;5.57;;;;;;;20.41;61.76;101598.94;4988007;28;20030;-78
2022/06/18 04:36:37;;;;;;;10.30;5.47;;;;;;;20.45;60.70;101596.97;5005481;28;20042;-78
2022/06/18 04:39:14;;;;;;;17.75;5.45;;;;;;;20.46;60.87;101604.09;5021196;28;20125;-78
2022/06/18 04:41:47;;;;;;;11.57;5.70;;;;;;;20.47;61.44;101600.44;5009668;28;20057;-78
2022/06/18 04:44:17;;;;;;;9.90;5.63;;;;;;;20.51;61.38;101611.94;5009811;28;20038;-78
2022/06/18 04:46:50;;;;;;;12.85;5.75;;;;;;;20.56;60.90;101616.16;4993543;28;20057;-78
2022/06/18 04:49:16;;;;;;;13.80;5.68;;;;;;;20.60;61.37;101614.19;5006335;28;20034;-78
2022/06/18 04:51:42;;;;;;;14.10;5.32;;;;;;;20.65;60.97;101619.28;5002517;28;20084;-78
2022/06/18 04:54:07;;;;;;;11.73;5.60;;;;;;;20.68;61.06;101620.03;5026123;28;20104;-78
2022/06/18 04:56:33;;;;;;;9.13;5.35;;;;;;;20.71;60.96;101614.47;4993288;28;20044;-78
2022/06/18 04:58:59;;;;;;;12.27;5.75;;;;;;;20.77;60.57;101616.88;5009205;28;20041;-78
2022/06/18 05:01:30;;;;;;;8.95;5.55;;;;;;;20.81;60.43;101622.94;5025998;28;20460;-78
2022/06/18 05:04:08;;;;;;;10.07;5.80;;;;;;;20.87;60.17;101621.75;5028121;28;20117;-78
2022/06/18 05:06:53;;;;;;;11.57;5.90;;;;;;;20.95;60.01;101622.22;4988238;28;20034;-78
2022/06/18 05:09:33;;;;;;;18.40;6.07;;;;;;;21.01;60.45;101621.88;4999501;28;20038;-78
2022/06/18 05:12:15;;;;;;;13.57;6.88;;;;;;;21.04;60.17;101619.91;4998560;28;20060;-78
2022/06/18 05:14:54;;;;;;;19.35;7.07;;;;;;;21.08;59.74;101620.63;5013252;28;20478;-78
2022/06/18 05:17:24;;;;;;;13.98;6.20;;;;;;;21.12;60.38;101619.50;5013087;28;20034;-78
2022/06/18 05:19:51;;;;;;;16.73;7.30;;;;;;;21.18;59.86;101629.06;5045793;28;20302;-78
2022/06/18 05:22:17;;;;;;;11.05;6.00;;;;;;;21.23;60.07;101627.00;5010030;28;20088;-78
2022/06/18 05:24:44;;;;;;;18.38;6.80;;;;;;;21.24;60.24;101632.31;5007914;28;20038;-78
2022/06/18 05:27:25;;;;;;;16.67;7.28;;;;;;;21.27;60.04;101629.44;5012843;28;20045;-78
2022/06/18 05:29:52;;;;;;;11.88;6.90;;;;;;;21.28;60.51;101638.38;5012928;28;20099;-78
2022/06/18 05:32:18;;;;;;;17.33;7.00;;;;;;;21.27;60.40;101637.53;4996706;28;20034;-78
2022/06/18 05:34:44;;;;;;;11.65;6.68;;;;;;;21.34;60.53;101638.06;5011838;28;20119;-78
2022/06/18 05:37:16;;;;;;;17.38;7.03;;;;;;;21.39;60.17;101640.53;5029107;28;20056;-78
2022/06/18 05:39:41;;;;;;;15.43;7.18;;;;;;;21.44;60.64;101641.16;5045879;28;20274;-78
2022/06/18 05:42:07;;;;;;;14.75;7.30;;;;;;;21.48;60.22;101651.66;4996435;28;20141;-78
2022/06/18 05:44:34;;;;;;;19.20;7.40;;;;;;;21.51;60.23;101647.94;5002948;28;20117;-78
2022/06/18 05:47:00;;;;;;;11.43;6.68;;;;;;;21.54;60.90;101642.41;5010058;28;20120;-77
2022/06/18 05:49:26;;;;;;;14.90;6.82;;;;;;;21.59;60.24;101653.78;4993224;28;20035;-78
2022/06/18 05:51:52;;;;;;;29.77;7.72;;;;;;;21.60;60.34;101650.13;5002297;28;20032;-77
2022/06/18 05:54:19;;;;;;;17.65;7.20;;;;;;;21.68;60.46;101647.00;5012605;28;20037;-78
2022/06/18 05:56:51;;;;;;;15.25;7.22;;;;;;;21.73;59.40;101641.38;4999552;28;20034;-78
2022/06/18 05:59:30;;;;;;;13.80;7.45;;;;;;;21.77;59.35;101638.41;5028542;28;20054;-78
2022/06/18 06:01:56;;;;;;;19.92;7.43;;;;;;;21.84;58.61;101634.41;5012401;28;20052;-78
2022/06/18 06:04:25;;;;;;;16.17;7.30;;;;;;;21.90;58.95;101631.34;5012224;28;20064;-78
2022/06/18 06:06:53;;;;;;;16.58;6.85;;;;;;;21.98;59.74;101630.91;5013880;28;20037;-78
2022/06/18 06:12:09;;;;;;;16.98;7.15;;;;;;;22.09;57.69;101628.50;5003502;28;20432;-78
2022/06/18 06:14:36;;;;;;;18.65;8.05;;;;;;;22.11;57.57;101612.22;5007506;28;20026;-78
2022/06/18 06:17:03;;;;;;;15.02;7.28;;;;;;;22.13;58.12;101618.38;5011334;28;20398;-78
2022/06/18 06:19:29;;;;;;;15.88;7.43;;;;;;;22.17;57.49;101619.94;4998682;28;20068;-77
2022/06/18 06:21:54;;;;;;;14.85;7.40;;;;;;;22.20;57.72;101608.13;5024958;28;20037;-78
2022/06/18 06:24:20;;;;;;;22.65;7.88;;;;;;;22.25;58.49;101617.69;5005226;28;20497;-77
2022/06/18 06:26:45;;;;;;;24.25;7.10;;;;;;;22.33;58.36;101620.84;4978622;28;20033;-78
2022/06/18 06:29:11;;;;;;;20.75;7.18;;;;;;;22.46;58.29;101612.88;5002873;28;20434;-77
2022/06/18 06:31:36;;;;;;;22.13;7.53;;;;;;;22.52;57.83;101622.44;4997998;28;20402;-78
2022/06/18 06:34:02;;;;;;;20.77;7.13;;;;;;;22.61;57.38;101621.03;5011502;28;20073;-78
2022/06/18 06:36:28;;;;;;;20.38;7.75;;;;;;;22.68;57.09;101614.28;5011862;28;20053;-78
2022/06/18 06:38:53;;;;;;;15.30;7.00;;;;;;;22.76;57.77;101618.25;5011590;28;20037;-78
2022/06/18 06:41:23;;;;;;;16.15;7.47;;;;;;;22.85;56.66;101616.84;5012978;28;20030;-78
2022/06/18 06:43:49;;;;;;;13.57;7.15;;;;;;;22.96;57.26;101616.16;5011152;28;20060;-78
2022/06/18 06:46:17;;;;;;;17.63;7.80;;;;;;;23.05;56.34;101621.03;5013114;28;20413;-78
2022/06/18 06:48:43;;;;;;;16.80;6.88;;;;;;;23.09;55.80;101617.16;5011285;28;20040;-78
2022/06/18 06:51:15;;;;;;;24.23;8.73;;;;;;;23.10;55.92;101615.34;4994736;28;20195;-77
2022/06/18 06:53:41;;;;;;;17.70;7.80;;;;;;;23.13;56.50;101623.25;4999080;28;20034;-78
2022/06/18 06:58:54;;;;;;;23.15;7.80;;;;;;;23.20;55.94;101621.91;4998785;28;20038;-78
2022/06/18 07:01:19;;;;;;;15.23;6.82;;;;;;;23.29;55.72;101618.59;5012537;28;20185;-78
2022/06/18 07:03:45;;;;;;;22.27;7.85;;;;;;;23.37;56.02;101621.72;5012617;28;20462;-78
2022/06/18 07:06:10;;;;;;;19.00;6.70;;;;;;;23.48;56.06;101623.72;5012538;28;20073;-78
2022/06/18 07:08:35;;;;;;;13.15;7.43;;;;;;;23.56;55.70;101631.34;5011316;28;20048;-78
2022/06/18 07:11:02;;;;;;;15.88;7.93;;;;;;;23.65;55.88;101625.34;5012271;28;20026;-78
2022/06/18 07:13:28;;;;;;;23.05;7.60;;;;;;;23.75;55.42;101623.81;5013728;28;20049;-78
2022/06/18 07:15:54;;;;;;;20.75;8.38;;;;;;;23.72;55.29;101625.84;5012594;28;20168;-77
2022/06/18 07:18:26;;;;;;;18.95;7.05;;;;;;;23.78;55.62;101625.44;4994841;28;20100;-78
2022/06/18 07:20:52;;;;;;;20.40;7.45;;;;;;;23.85;55.81;101634.06;5011078;28;20044;-78
2022/06/18 07:23:17;;;;;;;14.30;7.75;;;;;;;23.95;55.11;101632.47;5012140;28;20434;-77
2022/06/18 07:25:43;;;;;;;14.55;7.50;;;;;;;24.02;55.04;101631.09;5010878;28;20616;-78
2022/06/18 07:28:09;;;;;;;19.48;7.90;;;;;;;24.14;54.60;101632.13;5008074;28;20448;-78
2022/06/18 07:30:36;;;;;;;15.75;7.57;;;;;;;24.31;54.84;101628.28;4994686;28;20096;-78
2022/06/18 07:33:02;;;;;;;18.60;7.60;;;;;;;24.39;54.60;101631.34;4992792;28;20121;-78
2022/06/18 07:35:31;;;;;;;19.92;8.23;;;;;;;24.50;54.31;101627.94;4994205;28;20112;-77
2022/06/18 07:37:59;;;;;;;18.83;7.97;;;;;;;24.53;54.31;101633.13;5011929;28;20386;-77
2022/06/18 07:40:29;;;;;;;18.02;7.95;;;;;;;24.64;54.43;101626.03;5009103;28;20092;-77
2022/06/18 07:42:56;;;;;;;16.73;6.77;;;;;;;24.73;53.97;101619.13;5011923;28;20404;-78
2022/06/18 07:45:24;;;;;;;17.90;7.78;;;;;;;24.75;53.12;101630.69;5011931;28;20304;-77
2022/06/18 07:47:51;;;;;;;17.50;7.60;;;;;;;24.82;53.63;101623.88;5012248;28;20377;-78
2022/06/18 07:50:19;;;;;;;16.85;7.38;;;;;;;24.86;52.55;101617.28;5010449;28;20502;-77
2022/06/18 07:52:45;;;;;;;14.88;7.68;;;;;;;25.02;53.79;101618.91;5011418;28;20045;-78
2022/06/18 07:55:18;;;;;;;24.50;7.30;;;;;;;25.09;52.37;101617.50;5011761;28;20033;-77
2022/06/18 07:57:43;;;;;;;15.90;7.55;;;;;;;25.13;52.51;101612.75;5004146;28;20050;-78
2022/06/18 08:00:11;;;;;;;17.50;7.57;;;;;;;25.19;52.25;101609.63;5004013;28;20053;-77
2022/06/18 08:02:39;;;;;;;21.52;7.47;;;;;;;25.23;52.20;101614.72;5006327;28;20049;-77
2022/06/18 08:05:05;;;;;;;19.20;7.85;;;;;;;25.39;52.44;101611.75;4993752;28;20143;-77
2022/06/18 08:07:31;;;;;;;23.30;7.85;;;;;;;25.43;51.93;101598.84;5011527;28;20069;-78
2022/06/18 08:09:56;;;;;;;19.05;7.10;;;;;;;25.57;52.56;101604.16;5011403;28;20105;-77
2022/06/18 08:12:22;;;;;;;18.98;7.05;;;;;;;25.68;52.21;101597.91;5011478;28;20113;-77
2022/06/18 08:14:48;;;;;;;18.08;6.70;;;;;;;25.73;50.99;101599.31;5011425;28;20045;-78
2022/06/18 08:17:13;;;;;;;20.40;7.90;;;;;;;25.72;51.43;101597.59;5011334;28;20458;-77
2022/06/18 08:19:39;;;;;;;12.82;6.50;;;;;;;25.93;51.21;101594.28;4992424;28;20151;-78
2022/06/18 08:22:05;;;;;;;16.50;7.03;;;;;;;26.01;50.19;101601.84;5006731;28;20444;-78
2022/06/18 08:24:31;;;;;;;22.00;7.70;;;;;;;26.03;50.27;101598.03;5004502;28;20450;-77
2022/06/18 08:26:56;;;;;;;26.38;7.35;;;;;;;26.10;50.28;101584.88;4993242;28;20037;-77
2022/06/18 08:29:24;;;;;;;20.17;6.65;;;;;;;26.16;50.27;101579.84;4990268;28;20051;-77
2022/06/18 08:31:50;;;;;;;17.92;6.70;;;;;;;26.28;49.47;101579.88;5006898;28;20025;-77
2022/06/18 08:34:15;;;;;;;19.77;6.82;;;;;;;26.35;49.56;101581.16;5008781;28;20052;-77
2022/06/18 08:36:42;;;;;;;17.20;7.28;;;;;;;26.40;49.20;101581.66;5009709;28;20128;-77
2022/06/18 08:39:08;;;;;;;18.33;6.80;;;;;;;26.52;49.10;101588.00;5011874;28;20118;-77
2022/06/18 08:42:07;;;;;;;24.35;8.05;;;;;;;26.60;48.50;101594.59;5014029;28;20046;-77
2022/06/18 08:44:48;;;;;;;20.98;7.30;;;;;;;26.70;48.13;101592.00;5030456;28;20509;-78
2022/06/18 08:47:14;;;;;;;20.35;7.30;;;;;;;26.86;48.21;101588.97;5015057;28;20045;-78
2022/06/18 08:49:56;;;;;;;26.52;7.43;;;;;;;26.95;48.18;101598.25;5030232;28;20033;-77
2022/06/18 08:52:52;;;;;;;33.03;7.97;;;;;;;27.02;47.57;101594.91;5010725;28;20041;-77
2022/06/18 08:55:18;;;;;;;16.75;6.55;;;;;;;27.15;46.99;101596.66;5009495;28;20466;-78
2022/06/18 08:58:12;;;;;;;17.80;6.72;;;;;;;27.26;47.20;101601.28;5030080;28;20065;-78
2022/06/18 09:00:45;;;;;;;19.25;6.63;;;;;;;27.40;47.97;101599.16;5011026;28;20221;-77
2022/06/18 09:03:32;;;;;;;15.95;5.82;;;;;;;27.52;46.47;101594.59;5012838;28;20034;-78
2022/06/18 09:06:10;;;;;;;17.65;5.70;;;;;;;27.67;46.29;101590.59;5000537;28;20048;-77
2022/06/18 09:09:25;;;;;;;15.88;5.78;;;;;;;27.75;45.78;101597.28;5002928;28;20088;-78
2022/06/18 09:11:53;;;;;;;22.55;5.50;;;;;;;27.71;44.18;101603.94;5009638;28;20038;-78
2022/06/18 09:14:33;;;;;;;19.58;5.95;;;;;;;27.81;44.38;101597.59;4996871;28;20038;-77
2022/06/18 09:17:20;;;;;;;17.65;5.88;;;;;;;27.91;45.06;101591.44;5000349;28;20040;-77
2022/06/18 09:20:07;;;;;;;20.48;6.45;;;;;;;28.03;44.90;101594.00;5012754;28;20049;-78
2022/06/18 09:22:37;;;;;;;21.92;6.03;;;;;;;28.14;44.58;101595.84;5013158;28;20462;-77
2022/06/18 09:25:12;;;;;;;16.67;6.95;;;;;;;28.23;44.61;101586.84;4999097;28;20050;-77
2022/06/18 09:27:43;;;;;;;14.57;5.82;;;;;;;28.50;44.67;101596.44;5013031;28;20046;-78
2022/06/18 09:30:33;;;;;;;19.95;6.00;;;;;;;28.57;43.67;101594.06;5014222;28;20537;-77
2022/06/18 09:33:08;;;;;;;15.73;6.60;;;;;;;28.52;43.87;101591.72;5027925;28;20038;-78
2022/06/18 09:35:50;;;;;;;21.25;6.20;;;;;;;28.50;43.74;101586.38;5006801;28;20445;-77
2022/06/18 09:38:19;;;;;;;23.02;6.85;;;;;;;28.47;43.85;101580.34;4994676;28;20039;-78
2022/06/18 09:40:51;;;;;;;18.58;6.32;;;;;;;28.68;44.09;101588.53;5012596;28;20441;-77
2022/06/18 09:43:26;;;;;;;23.95;5.70;;;;;;;28.97;43.14;101579.66;5012523;28;20385;-78
2022/06/18 09:45:57;;;;;;;24.50;6.50;;;;;;;29.22;41.66;101578.38;5012829;28;20041;-78
2022/06/18 09:48:22;;;;;;;;;;;;;;;29.38;41.71;101573.28;4996479;28;20097;-77
2022/06/18 09:50:54;;;;;;;22.55;5.55;;;;;;;29.31;42.50;101572.09;5013634;28;19958;-77
2022/06/18 09:53:28;;;;;;;20.73;6.38;;;;;;;29.32;42.22;101579.28;5000378;28;20577;-77
2022/06/18 09:55:57;;;;;;;21.67;6.78;;;;;;;29.28;40.92;101572.38;4998006;28;20430;-78
2022/06/18 09:59:04;;;;;;;17.75;5.82;;;;;;;29.27;41.75;101573.38;5000982;28;20041;-77
2022/06/18 10:01:41;;;;;;;20.50;6.32;;;;;;;29.34;41.99;101569.09;5009319;28;20053;-78
2022/06/18 10:06:57;;;;;;;16.42;5.63;;;;;;;29.52;41.17;101559.22;5028746;28;20026;-78
2022/06/18 10:09:46;;;;;;;28.88;7.10;;;;;;;29.68;41.07;101552.41;5012436;28;20040;-78
2022/06/18 10:12:19;;;;;;;15.93;5.57;;;;;;;29.63;41.22;101560.13;5011695;28;20092;-77
2022/06/18 10:14:48;;;;;;;21.67;6.47;;;;;;;29.51;40.95;101562.97;5013435;28;20038;-77
2022/06/18 10:17:36;;;;;;;24.45;6.65;;;;;;;29.54;41.19;101561.81;5013607;28;20095;-78
2022/06/18 10:20:15;;;;;;;20.10;6.88;;;;;;;29.63;41.42;101566.44;4981719;28;20351;-78
2022/06/18 10:22:54;;;;;;;24.05;6.05;;;;;;;29.73;41.16;101563.78;5000276;28;20053;-78
2022/06/18 10:25:42;;;;;;;22.55;6.45;;;;;;;29.81;41.53;101557.59;5022551;28;20037;-78
2022/06/18 10:28:31;;;;;;;18.48;5.63;;;;;;;30.03;41.45;101551.00;5007883;28;20497;-77
2022/06/18 10:31:06;;;;;;;16.17;6.38;;;;;;;30.30;40.42;101544.84;5001972;28;20034;-78
2022/06/18 10:33:52;;;;;;;20.00;5.43;;;;;;;30.62;39.02;101545.38;5007842;28;20037;-78
2022/06/18 10:36:34;;;;;;;23.08;5.78;;;;;;;30.82;39.27;101545.31;5012927;28;20529;-77
2022/06/18 10:39:23;;;;;;;17.20;5.43;;;;;;;30.92;40.18;101548.06;5000003;28;20034;-77
2022/06/18 10:41:57;;;;;;;20.95;5.53;;;;;;;31.09;39.48;101535.47;5011620;28;20461;-78
2022/06/18 10:44:43;;;;;;;13.80;5.13;;;;;;;31.37;39.74;101536.31;5030096;28;20042;-78
2022/06/18 10:47:15;;;;;;;19.33;6.30;;;;;;;31.36;37.75;101535.47;5009585;28;20125;-78
2022/06/18 10:49:46;;;;;;;16.95;6.22;;;;;;;31.33;37.59;101530.31;4998575;28;20030;-78
2022/06/18 10:52:24;;;;;;;21.90;6.25;;;;;;;31.32;38.70;101528.56;5009804;28;20050;-77
2022/06/18 10:54:51;;;;;;;17.25;5.95;;;;;;;31.41;39.68;101526.84;5002555;28;20066;-77
2022/06/18 10:57:26;;;;;;;20.48;6.10;;;;;;;31.61;38.50;101525.69;5008019;28;20406;-78
2022/06/18 10:59:52;;;;;;;20.05;5.75;;;;;;;31.68;37.61;101525.94;5012537;28;20046;-78
2022/06/18 11:02:21;;;;;;;17.92;5.63;;;;;;;31.88;38.40;101524.78;5011966;28;20386;-77
2022/06/18 11:04:58;;;;;;;21.10;6.45;;;;;;;32.13;37.58;101517.66;4997498;28;20470;-78
2022/06/18 11:07:27;;;;;;;16.77;5.60;;;;;;;32.31;36.96;101523.09;5012693;28;20380;-78
2022/06/18 11:10:05;;;;;;;22.17;6.18;;;;;;;32.23;36.24;101517.56;4997211;28;20038;-78
2022/06/18 11:12:38;;;;;;;20.48;5.60;;;;;;;32.49;36.64;101524.97;5010883;28;20378;-78
2022/06/18 11:15:32;;;;;;;22.27;5.43;;;;;;;32.53;36.46;101515.41;4997149;28;20119;-78
2022/06/18 11:17:58;;;;;;;19.00;6.07;;;;;;;32.32;35.33;101508.41;5009874;28;20041;-78
2022/06/18 11:20:29;;;;;;;20.05;6.78;;;;;;;32.45;35.71;101512.59;4998464;28;20335;-78
2022/06/18 11:22:59;;;;;;;19.48;6.43;;;;;;;32.13;35.45;101501.22;5012319;28;20121;-78
2022/06/18 11:25:43;;;;;;;23.02;6.50;;;;;;;32.35;35.23;101496.25;5004878;28;20362;-78
2022/06/18 11:28:21;;;;;;;15.25;6.00;;;;;;;32.58;36.10;101487.53;5005794;28;20122;-78
2022/06/18 11:30:49;;;;;;;19.10;5.75;;;;;;;32.62;35.45;101477.94;5002416;28;20026;-78
2022/06/18 11:33:52;;;;;;;20.42;5.22;;;;;;;32.95;36.65;101476.22;5004850;28;20029;-78
2022/06/18 11:36:30;;;;;;;15.88;5.22;;;;;;;33.17;35.23;101469.31;5000274;28;20030;-79
2022/06/18 11:38:57;;;;;;;24.65;5.82;;;;;;;33.14;34.16;101464.16;5011867;28;20379;-78
2022/06/18 11:41:33;;;;;;;19.75;5.85;;;;;;;33.27;34.65;101463.69;4998957;28;20038;-78
2022/06/18 11:44:13;;;;;;;18.13;5.65;;;;;;;33.19;35.29;101459.03;4997552;28;20587;-78
2022/06/18 11:46:44;;;;;;;20.63;5.80;;;;;;;32.92;34.65;101460.97;4994580;28;20037;-78
2022/06/18 11:49:27;;;;;;;17.30;4.95;;;;;;;33.27;36.21;101455.44;4994220;28;20033;-78
2022/06/18 11:52:11;;;;;;;18.30;5.78;;;;;;;33.37;33.96;101451.53;5007545;28;20178;-78